Portada
METAR-TAF:

METAR-TAF

Aeroports :

Nan, Tailàndia

latitud: 18-46N, longitud: 100-46E, altitud: 200 m

Observació

L'informe es va fer fa 7 hores i 16 minuts, a les 12:00 UTC
Vent 2 kt amb direcció variable
Temperatura 25°C
Humitat 100%
Pressió 1009 hPa
Visibilitat 10 km o més
Escasses núvols a una alçada de 2500 ft

METAR: VTCN 211200Z VRB02KT 9999 FEW025 25/25 Q1009 NOSIG

Hora: 02:16 (19:16 UTC)

Pronòstic

L'informe es va fer fa 8 hores i 16 minuts, a les 11:00 UTC
Pronòstic vàlid del 21 a les 12 UTC al 22 a les 12 UTC
Vent 5 kt del Nord/Nord-Est
Visibilitat 10 km o més
Núvols disperses a una alçada de 3000 ft
Temporalment
l' 21 a les 12 UTC al 21 a les 18 UTC
Vent 15 kt amb direcció variable amb ràfegues de 25 kt
Visibilitat: 5000 m
Escasses núvols a una alçada de 2500 ft, Cumulonimbus.
Cel ennuvolat a una alçada de 3000 ft
tempesta, pluja

TAF: VTCN 211100Z 2112/2212 02005KT 9999 SCT030 TEMPO 2112/2118 VRB15G25KT 5000 TSRA FEW025CB BKN030

Observacions i pronòstics meteorològics de més de 4000 aeroports (METAR i TAF).

Les estacions disponibles són els punts grocs i vermells al mapa.

Posi el ratolí al punt desitjat per veure el nom de l'estació.

Feu clic per veure les observacions i els pronòstics meteorològics.

Per canviar el mapa: feu clic els botons verds amb una creu de color negre per apropar; al botó verd amb un guió per allunyar la imatge; o en les fletxes verdes per a mapes adjacents.


METAR-TAF: